^^
Datos históricos de la estación: Murcia-Puente Tocinos
Diario Informe para Junio 22, 2019 Unidades:  Ingés    Métrico   Ambas
Diario Semanal Mensual Anual
  Máxima: Mínima: Promedio:
Temperatura: 80.4 °F 57.6 °F 68.9 °F
Punto de rocio: 58.3 °F 43.7 °F 53.8 °F
Humedad: 87% 28% 63%
Velocidad viento: 12.5mph 0mph 5.2mph
Racha viento: 23.5mph - -
Viento- - SSE
Presión: 30 in 30 in -
Precipitación: 0 in    
 
 
Tabla de datos para Junio 22, 2019
Hora Temperatura Punto de rocio Presión Viento Velocidad viento Racha viento Humedad Intensidad lluvia(por hora) Nubes
00:04 63 °F 58.1 °F 30 in NO 2 mph 5 mph 84% 0 in
00:09 63 °F 58.3 °F 30 in ONO 1.8 mph 4.6 mph 84.9% 0 in
00:14 62.8 °F 58.1 °F 30 in ONO 1.4 mph 5.8 mph 85% 0 in
00:19 62.4 °F 57.9 °F 30 in NO 1.9 mph 6 mph 85% 0 in
00:24 62.4 °F 57.7 °F 30 in NO 2.9 mph 5 mph 85% 0 in
00:29 62.2 °F 57.7 °F 30 in NO 2.5 mph 4 mph 85% 0 in
00:34 62.2 °F 57.7 °F 30 in NO 1.8 mph 4 mph 85% 0 in
00:39 62.2 °F 57.7 °F 30 in NO 1.1 mph 4 mph 84.9% 0 in
00:44 62.2 °F 57.6 °F 30 in Calm   4 mph 84.7% 0 in
00:49 62.4 °F 57.7 °F 30 in SE 0.7 mph 5.9 mph 84.9% 0 in
00:54 62.2 °F 57.9 °F 30 in SE 2 mph 6.4 mph 85.6% 0 in
00:59 62.1 °F 57.9 °F 30 in SSE 3 mph 9.2 mph 86% 0 in
01:04 61.9 °F 57.6 °F 30 in SSE 4.7 mph 9 mph 86% 0 in
01:09 61.9 °F 57.6 °F 30 in SSE 4.7 mph 7 mph 86% 0 in
01:14 61.7 °F 57.6 °F 30 in Sur 4.7 mph 6.9 mph 86% 0 in
01:19 61.9 °F 57.4 °F 30 in SSO 4.4 mph 7 mph 85.5% 0 in
01:24 61.9 °F 57.4 °F 30 in SSO 4 mph 6 mph 85% 0 in
01:29 62.1 °F 57.4 °F 30 in SO 3.7 mph 6 mph 85% 0 in
01:34 62.1 °F 57.2 °F 30 in SO 3.1 mph 6.2 mph 84.1% 0 in
01:39 62.1 °F 57.2 °F 30 in OSO 3 mph 6 mph 84% 0 in
01:44 62.1 °F 57 °F 30 in OSO 2.9 mph 6 mph 83.4% 0 in
01:49 62.1 °F 56.8 °F 30 in OSO 2.5 mph 6 mph 83% 0 in
01:54 62.1 °F 56.8 °F 30 in OSO 1.8 mph 4.3 mph 83% 0 in
01:59 62.1 °F 56.8 °F 30 in OSO 1.8 mph 5 mph 83% 0 in
02:04 62.1 °F 56.8 °F 30 in OSO 1.8 mph 5 mph 83% 0 in
02:09 62.1 °F 56.8 °F 30 in SSO 1.7 mph 5.9 mph 83% 0 in
02:14 61.9 °F 56.7 °F 30 in Sur 1.4 mph 6 mph 83% 0 in
02:19 61.9 °F 56.7 °F 30 in Sur 2.2 mph 6 mph 83% 0 in
02:24 61.7 °F 56.5 °F 30 in Sur 3.6 mph 5 mph 83% 0 in
02:29 61.5 °F 56.3 °F 30 in Sur 3.1 mph 5 mph 83% 0 in
02:34 61.5 °F 56.3 °F 30 in Sur 2.4 mph 5.2 mph 83% 0 in
02:39 61.5 °F 56.3 °F 30 in Sur 2.6 mph 6.9 mph 83% 0 in
02:44 61.5 °F 56.3 °F 30 in Sur 2.9 mph 7 mph 83% 0 in
02:49 61.3 °F 55.9 °F 30 in Sur 2.9 mph 5 mph 82.6% 0 in
02:54 61.3 °F 55.9 °F 30 in Sur 2.9 mph 5.4 mph 82.5% 0 in
02:59 61.3 °F 55.8 °F 30 in Sur 3 mph 6 mph 82% 0 in
03:04 61.3 °F 55.8 °F 30 in Sur 3.1 mph 6 mph 82% 0 in
03:09 61.3 °F 55.9 °F 30 in Sur 3.1 mph 5 mph 82.6% 0 in
03:14 61.3 °F 56.1 °F 30 in SSE 3.1 mph 5 mph 83% 0 in
03:19 61.3 °F 56.5 °F 30 in SSE 2.8 mph 5 mph 83.8% 0 in
03:24 61.2 °F 56.3 °F 30 in Sur 2.4 mph 5 mph 84% 0 in
03:29 61.2 °F 56.3 °F 30 in Sur 2.2 mph 5 mph 84% 0 in
03:34 61.2 °F 56.3 °F 30 in Sur 2 mph 3.6 mph 84% 0 in
03:39 61.2 °F 56.3 °F 30 in Sur 1.8 mph 4 mph 84% 0 in
03:44 61 °F 56.3 °F 30 in Sur 1.4 mph 3 mph 84.4% 0 in
03:49 60.8 °F 56.1 °F 30 in NO 1.4 mph 4.6 mph 85% 0 in
03:54 60.4 °F 55.8 °F 30 in NNO 1.4 mph 5 mph 85% 0 in
03:59 60.3 °F 55.6 °F 30 in NNO 1.4 mph 3 mph 85.1% 0 in
04:04 59.9 °F 55.8 °F 30 in NNO 1.4 mph   86% 0 in
04:09 59.7 °F 55.6 °F 30 in NNO 0.9 mph   86.4% 0 in
04:14 59.7 °F 55.8 °F 30 in Calm     87% 0 in
04:19 59.5 °F 55.8 °F 30 in Calm   2.9 mph 87% 0 in
04:24 59.5 °F 55.8 °F 30 in Calm   3.6 mph 87% 0 in
04:29 59.5 °F 55.8 °F 30 in NNO 0.7 mph 4.6 mph 87% 0 in
04:34 59.5 °F 55.8 °F 30 in NNO 2 mph 5 mph 87% 0 in
04:39 59.5 °F 55.6 °F 30 in NNO 2 mph 4.6 mph 86.9% 0 in
04:44 59.5 °F 55.2 °F 30 in Sur 2 mph 5 mph 86% 0 in
04:49 59.5 °F 55.2 °F 30 in Sur 1.9 mph 3.5 mph 86% 0 in
04:54 59.5 °F 55.2 °F 30 in Sur 1.8 mph 4.6 mph 85.8% 0 in
04:59 59.5 °F 55 °F 30 in Sur 1.9 mph 5 mph 85% 0 in
05:04 59.5 °F 54.9 °F 30 in SSO 2 mph 5.8 mph 85% 0 in
05:09 59.4 °F 54.5 °F 30 in SSO 2.4 mph 6 mph 84.3% 0 in
05:14 59.4 °F 54.5 °F 30 in SSO 3.1 mph 6 mph 84% 0 in
05:19 59.4 °F 54.3 °F 30 in SSO 3.1 mph 6 mph 84% 0 in
05:24 59.4 °F 54.5 °F 30 in SSO 3.1 mph 5 mph 84% 0 in
05:29 59.4 °F 54.5 °F 30 in SSO 2.7 mph 5 mph 84% 0 in
05:34 59.4 °F 54.5 °F 30 in SSO 2 mph 4 mph 84% 0 in
05:39 59.4 °F 54.5 °F 30 in SSO 1.9 mph 4 mph 84% 0 in
05:44 59.4 °F 54.5 °F 30 in SSO 1.8 mph 4 mph 84% 0 in
05:49 59.2 °F 54.3 °F 30 in SSO 2.1 mph 5.8 mph 84% 0 in
05:54 59 °F 54.3 °F 30 in SSO 2.4 mph 6 mph 84% 0 in
05:59 58.8 °F 54.1 °F 30 in SSE 2.7 mph 5.8 mph 84% 0 in
06:04 58.8 °F 54.1 °F 30 in SSE 3.1 mph 6 mph 84.4% 0 in
06:09 58.8 °F 54.3 °F 30 in SSE 2.7 mph 5 mph 84.9% 0 in
06:14 58.6 °F 54.1 °F 30 in SSE 2 mph 2.3 mph 84.8% 0 in
06:19 58.6 °F 54.1 °F 30 in SSE 1.2 mph 2 mph 85% 0 in
06:24 58.6 °F 54.1 °F 30 in Calm   5.2 mph 85% 0 in
06:29 58.6 °F 54.1 °F 30 in Sur 1.1 mph 5.4 mph 85% 0 in
06:34 58.5 °F 54 °F 30 in SSE 2.9 mph 6 mph 85% 0 in
06:39 58.5 °F 54 °F 30 in SSE 3.3 mph 6.9 mph 85% 0 in
06:44 58.3 °F 53.8 °F 30 in SSE 4 mph 7 mph 85% 0 in
06:49 57.9 °F 53.4 °F 30 in SSE 4 mph 6.9 mph 85% 0 in
06:54 57.7 °F 53.4 °F 30 in SSE 4 mph 7 mph 85% 0 in
06:59 57.7 °F 53.6 °F 30 in SSE 4 mph 7 mph 86% 0 in
07:04 57.6 °F 53.4 °F 30 in SSE 4 mph 7 mph 86% 0 in
07:09 57.6 °F 53.4 °F 30 in SSE 4.1 mph 6.2 mph 86% 0 in
07:14 57.6 °F 53.4 °F 30 in SSE 4.3 mph 6 mph 86% 0 in
07:19 57.6 °F 53.4 °F 30 in Sur 4 mph 5.8 mph 86% 0 in
07:24 57.7 °F 53.6 °F 30 in Sur 3.6 mph 6 mph 86% 0 in
07:29 57.9 °F 53.8 °F 30 in Sur 3.4 mph 5 mph 86% 0 in
07:34 57.9 °F 53.8 °F 30 in SSE 3.1 mph 5 mph 86% 0 in
07:39 58.3 °F 54.1 °F 30 in SSE 2.9 mph 5 mph 86% 0 in
07:44 58.6 °F 54.1 °F 30 in SSE 2.4 mph 3 mph 85.5% 0 in
07:49 59 °F 54.3 °F 30 in SSE 2 mph 3.5 mph 84.8% 0 in
07:54 59.4 °F 54.5 °F 30 in SSE 1.4 mph 3.6 mph 84% 0 in
07:59 59.5 °F 54.3 °F 30 in SSE 1.6 mph 5.9 mph 82.7% 0 in
08:04 59.5 °F 54.3 °F 30 in SSE 2 mph 6 mph 82.7% 0 in
08:09 59.7 °F 54.5 °F 30 in SSE 2.6 mph 6 mph 83% 0 in
08:14 59.9 °F 54.7 °F 30 in SSE 3.6 mph 6.2 mph 83% 0 in
08:19 60.3 °F 55 °F 30 in SSE 3.4 mph 6 mph 83% 0 in
08:24 60.4 °F 55.2 °F 30 in SSE 3.1 mph 5 mph 82.9% 0 in
08:29 60.6 °F 55.2 °F 30 in Sur 2.8 mph 5 mph 82% 0 in
08:34 61.2 °F 55.4 °F 30 in SSO 2.4 mph 5 mph 81.5% 0 in
08:39 61.3 °F 55.2 °F 30 in SO 2.4 mph 5.2 mph 80.5% 0 in
08:44 61.5 °F 55.2 °F 30 in SO 2.4 mph 5 mph 80% 0 in
08:49 61.9 °F 55.6 °F 30 in SO 2.2 mph 5.8 mph 79.8% 0 in
08:54 62.1 °F 55.6 °F 30 in OSO 2 mph 6 mph 79% 0 in
08:59 62.1 °F 55.6 °F 30 in OSO 2.5 mph 6 mph 79% 0 in
09:04 62.4 °F 55.8 °F 30 in OSO 3.1 mph 5.2 mph 79% 0 in
09:09 62.4 °F 55.8 °F 30 in OSO 3.1 mph 5.2 mph 78.7% 0 in
09:14 62.6 °F 56.1 °F 30 in SO 3.1 mph 5 mph 79% 0 in
09:19 63 °F 56.3 °F 30 in OSO 2.7 mph 5 mph 78.5% 0 in
09:24 63.5 °F 56.5 °F 30 in SO 2 mph 5 mph 78% 0 in
09:29 63.9 °F 56.5 °F 30 in SSO 2 mph 5 mph 77% 0 in
09:34 64.4 °F 56.7 °F 30 in SSO 2 mph 5 mph 75.9% 0 in
09:39 64.6 °F 56.5 °F 30 in SO 2.2 mph 7.4 mph 75% 0 in
09:44 64.8 °F 56.7 °F 30 in SSO 2.4 mph 7 mph 75% 0 in
09:49 64.9 °F 56.5 °F 30 in SO 2.6 mph 7 mph 74.1% 0 in
09:54 65.1 °F 56.8 °F 30 in ONO 2.9 mph 6 mph 74.8% 0 in
09:59 65.3 °F 56.7 °F 30 in ONO 3 mph 6.2 mph 73.9% 0 in
10:04 65.7 °F 56.8 °F 30 in ONO 3.1 mph 6.9 mph 73.6% 0 in
10:09 65.7 °F 56.8 °F 30 in Oeste 3.3 mph 7 mph 73.1% 0 in
10:14 65.8 °F 57 °F 30 in Oeste 3.6 mph 6 mph 73% 0 in
10:19 66.4 °F 57 °F 30 in SO 3.2 mph 5.2 mph 72.1% 0 in
10:24 66.7 °F 57 °F 30 in OSO 2.4 mph 6.2 mph 70.8% 0 in
10:29 67.1 °F 56.8 °F 30 in Oeste 2.2 mph 6 mph 69.7% 0 in
10:34 67.5 °F 56.5 °F 30 in ONO 2 mph 6 mph 68.1% 0 in
10:39 68 °F 56.8 °F 30 in NNO 2 mph 5.8 mph 67.4% 0 in
10:44 68.7 °F 56.3 °F 30 in NNE 2 mph 6 mph 64.6% 0 in
10:49 69.3 °F 56.3 °F 30 in North 1.9 mph 5 mph 63.4% 0 in
10:54 69.6 °F 56.1 °F 30 in NNE 1.8 mph 5 mph 62.2% 0 in
10:59 70.2 °F 54.3 °F 30 in NE 2.1 mph 5.8 mph 57.4% 0 in
11:04 70.3 °F 54.1 °F 30 in NNE 2.4 mph 6 mph 56.4% 0 in
11:09 70.5 °F 53.6 °F 30 in NE 2.4 mph 5.8 mph 55% 0 in
11:14 70.9 °F 52.3 °F 30 in NE 2.4 mph 6 mph 51.8% 0 in
11:19 71.1 °F 54 °F 30 in ENE 2.4 mph 6.4 mph 54.5% 0 in
11:24 71.4 °F 53.6 °F 30 in NE 2.4 mph 7 mph 53.6% 0 in
11:29 71.4 °F 52.5 °F 30 in North 2.9 mph 6.9 mph 51.2% 0 in
11:34 71.4 °F 52 °F 30 in NNE 3.6 mph 8.1 mph 50.3% 0 in
11:39 71.8 °F 52.2 °F 30 in NE 3.6 mph 8 mph 50.1% 0 in
11:44 72.1 °F 52.3 °F 30 in ENE 3.6 mph 8.5 mph 49.6% 0 in
11:49 72.7 °F 52.9 °F 30 in NNO 3.4 mph 9 mph 49.9% 0 in
11:54 72.7 °F 52.7 °F 30 in NE 3.1 mph 10 mph 49.6% 0 in
11:59 72.7 °F 52.3 °F 30 in NNE 3.7 mph 10 mph 49% 0 in
12:04 72.9 °F 52.7 °F 30 in NNE 4.7 mph 9 mph 49.1% 0 in
12:09 72.9 °F 53.1 °F 30 in NNE 4.7 mph 9 mph 49.6% 0 in
12:14 73.2 °F 52.9 °F 30 in NNO 4.7 mph 7.4 mph 49.2% 0 in
12:19 73.2 °F 52.9 °F 30 in NE 4.4 mph 9.2 mph 48.8% 0 in
12:24 73.6 °F 52.9 °F 30 in NE 4 mph 10.7 mph 48.5% 0 in
12:29 73.8 °F 52.5 °F 30 in NNE 4.3 mph 11 mph 47.5% 0 in
12:34 73.9 °F 52.2 °F 30 in NNE 4.7 mph 10.7 mph 46.6% 0 in
12:39 73.9 °F 51.8 °F 30 in NNO 4.7 mph 11 mph 45.9% 0 in
12:44 74.3 °F 51.4 °F 30 in NNO 4.7 mph 8.1 mph 44.8% 0 in
12:49 74.7 °F 51.6 °F 30 in North 4.5 mph 8.5 mph 44.4% 0 in
12:54 74.8 °F 51.4 °F 30 in NNO 4.3 mph 9 mph 43.9% 0 in
12:59 75.4 °F 51.1 °F 30 in NNE 4.2 mph 8.1 mph 42.7% 0 in
13:04 75.9 °F 49.5 °F 30 in Este 4 mph 8 mph 39.6% 0 in
13:09 76.3 °F 49.8 °F 30 in ENE 3.9 mph 7 mph 39.6% 0 in
13:14 76.5 °F 49.6 °F 30 in NE 3.6 mph 8.5 mph 38.9% 0 in
13:19 76.5 °F 49.1 °F 30 in NE 4 mph 9 mph 38% 0 in
13:24 76.8 °F 49.1 °F 30 in NE 4.7 mph 9.2 mph 37.6% 0 in
13:29 77.2 °F 46.9 °F 30 in ESE 4.7 mph 9.2 mph 34.6% 0 in
13:34 77.4 °F 48.4 °F 30 in NNE 4.7 mph 9 mph 36% 0 in
13:39 77.9 °F 47.7 °F 30 in NE 4.1 mph 6.9 mph 34.5% 0 in
13:44 78.3 °F 44.4 °F 30 in ENE 3.1 mph 10.4 mph 30.2% 0 in
13:49 78.4 °F 43.9 °F 30 in ENE 3.9 mph 12.7 mph 29.4% 0 in
13:54 78.8 °F 43.9 °F 30 in ENE 5.4 mph 13 mph 29.1% 0 in
13:59 79.2 °F 43.9 °F 30 in ESE 5.4 mph 13 mph 28.7% 0 in
14:04 79.5 °F 43.9 °F 30 in ESE 5.4 mph 13 mph 28.4% 0 in
14:09 79.9 °F 43.9 °F 30 in SE 5.6 mph 12 mph 28% 0 in
14:14 79.7 °F 43.7 °F 30 in ESE 5.9 mph 15.2 mph 28% 0 in
14:19 79.5 °F 44.2 °F 30 in Este 6.9 mph 15 mph 28.7% 0 in
14:24 79.3 °F 43.9 °F 30 in ESE 8.5 mph 15.2 mph 28.5% 0 in
14:29 79.3 °F 44.1 °F 30 in ESE 8.8 mph 15 mph 28.7% 0 in
14:34 79.5 °F 44.6 °F 30 in Este 9.2 mph 14 mph 29% 0 in
14:39 80.1 °F 45 °F 30 in SE 8.3 mph 14 mph 29% 0 in
14:44 80.2 °F 45.7 °F 30 in ESE 6.9 mph 15.2 mph 29.5% 0 in
14:49 80.2 °F 45.7 °F 30 in SE 7.8 mph 16.1 mph 29.6% 0 in
14:54 80.2 °F 46.6 °F 30 in SE 9.2 mph 16 mph 30.7% 0 in
14:59 80.2 °F 48.4 °F 30 in SE 9 mph 15.2 mph 32.8% 0 in
15:04 80.2 °F 49.3 °F 30 in ESE 8.7 mph 18.5 mph 34.1% 0 in
15:09 80.2 °F 48.9 °F 30 in ESE 8.3 mph 19 mph 33.6% 0 in
15:14 80.2 °F 49.8 °F 30 in ESE 7.6 mph 15 mph 34.7% 0 in
15:19 80.1 °F 49.6 °F 30 in SE 7.8 mph 15 mph 34.5% 0 in
15:24 79.9 °F 49.6 °F 30 in SE 8.1 mph 15 mph 34.6% 0 in
15:29 80.1 °F 50.7 °F 30 in SE 7.6 mph 18.4 mph 35.9% 0 in
15:34 80.4 °F 50.9 °F 30 in SE 6.9 mph 18 mph 35.8% 0 in
15:39 80.1 °F 50.5 °F 30 in ESE 7.7 mph 16.3 mph 35.9% 0 in
15:44 79.9 °F 50.9 °F 30 in ESE 9.2 mph 16.3 mph 36.5% 0 in
15:49 80.1 °F 50.7 °F 30 in ESE 9.6 mph 17.3 mph 36.2% 0 in
15:54 80.1 °F 51.1 °F 30 in SE 10.2 mph 17 mph 36.4% 0 in
15:59 80.2 °F 52.2 °F 30 in SE 10.1 mph 18.4 mph 37.8% 0 in
16:04 80.1 °F 52.2 °F 30 in ESE 10 mph 18 mph 38% 0 in
16:09 80.1 °F 52.5 °F 30 in SE 10 mph 17.3 mph 38.3% 0 in
16:14 80.1 °F 53.2 °F 30 in ESE 10 mph 19.7 mph 39.8% 0 in
16:19 79.9 °F 53.8 °F 30 in SE 10.4 mph 20 mph 40.7% 0 in
16:24 80.1 °F 54 °F 30 in ESE 11.2 mph 16.1 mph 40.6% 0 in
16:29 79.9 °F 53.6 °F 30 in ESE 11 mph 20.8 mph 40.3% 0 in
16:34 79.9 °F 53.4 °F 30 in SE 10.7 mph 21 mph 40.1% 0 in
16:39 79.3 °F 53.1 °F 30 in ESE 10.9 mph 19 mph 40.2% 0 in
16:44 79.3 °F 52.9 °F 30 in ESE 11.4 mph 18.4 mph 40% 0 in
16:49 79.7 °F 52.7 °F 30 in ESE 10.9 mph 18 mph 39.2% 0 in
16:54 79.9 °F 52.5 °F 30 in ESE 10.2 mph 17.5 mph 38.8% 0 in
16:59 79.3 °F 51.6 °F 30 in SE 11 mph 23 mph 38.1% 0 in
17:04 79.3 °F 51.4 °F 30 in SE 12.3 mph 23 mph 37.7% 0 in
17:09 79.5 °F 50.9 °F 30 in SE 11.9 mph 20.8 mph 36.9% 0 in
17:14 79.3 °F 50.2 °F 30 in SE 11.2 mph 21.3 mph 36.2% 0 in
17:19 79.2 °F 50 °F 30 in SE 11.7 mph 23.5 mph 36.1% 0 in
17:24 78.8 °F 50.4 °F 30 in ESE 12.5 mph 23 mph 37% 0 in
17:29 79 °F 50.4 °F 30 in SE 12.2 mph 19 mph 37% 0 in
17:34 79 °F 50.5 °F 30 in ESE 11.8 mph 19 mph 37% 0 in
17:39 78.8 °F 50.4 °F 30 in ESE 11.8 mph 23 mph 37% 0 in
17:44 78.6 °F 50.4 °F 30 in SE 11.8 mph 23 mph 37.2% 0 in
17:49 78.6 °F 50.4 °F 30 in SE 11.4 mph 21.3 mph 37.1% 0 in
17:54 78.6 °F 50.2 °F 30 in ESE 10.7 mph 21.3 mph 37.1% 0 in
17:59 78.4 °F 50.7 °F 30 in ESE 11.3 mph 21 mph 38% 0 in
18:04 78.4 °F 50.7 °F 30 in SE 12.3 mph 18.4 mph 38% 0 in
18:09 78.6 °F 51.3 °F 30 in ESE 11.4 mph 18.5 mph 38.7% 0 in
18:14 78.6 °F 51.6 °F 30 in ESE 10 mph 19 mph 39% 0 in
18:19 78.4 °F 51.4 °F 30 in ESE 10 mph 18.4 mph 39% 0 in
18:24 78.3 °F 51.3 °F 30 in ESE 10 mph 18 mph 39.1% 0 in
18:29 78.1 °F 51.1 °F 30 in ESE 10.5 mph 18.4 mph 39% 0 in
18:34 78.1 °F 51.1 °F 30 in SE 11.4 mph 20.7 mph 39% 0 in
18:39 78.1 °F 51.4 °F 30 in SE 11.4 mph 21 mph 39.6% 0 in
18:44 77.9 °F 51.6 °F 30 in ESE 11.4 mph 19.6 mph 40% 0 in
18:49 77.9 °F 51.6 °F 30 in ESE 11.4 mph 20.7 mph 40% 0 in
18:54 77.5 °F 51.6 °F 30 in ESE 11.4 mph 21 mph 40.5% 0 in
18:59 77.5 °F 52 °F 30 in SE 10.9 mph 21.9 mph 41% 0 in
19:04 77.5 °F 51.8 °F 30 in SE 10.2 mph 22 mph 40.6% 0 in
19:09 77.5 °F 51.8 °F 30 in SE 10.4 mph 17.5 mph 40.7% 0 in
19:14 77.4 °F 52.3 °F 30 in ESE 10.7 mph 17 mph 41.9% 0 in
19:19 77.2 °F 52.2 °F 30 in ESE 10.5 mph 16.1 mph 41.9% 0 in
19:24 77 °F 52.2 °F 30 in ESE 10.2 mph 17.3 mph 42.2% 0 in
19:29 76.8 °F 52.5 °F 30 in ESE 10.2 mph 17.3 mph 42.9% 0 in
19:34 76.8 °F 52.3 °F 30 in ESE 10.2 mph 17 mph 42.5% 0 in
19:39 76.8 °F 52.5 °F 30 in ESE 9.8 mph 14 mph 42.9% 0 in
19:44 76.6 °F 52.5 °F 30 in ESE 9.2 mph 15 mph 43% 0 in
19:49 76.6 °F 52.5 °F 30 in ESE 9 mph 18.4 mph 43% 0 in
19:54 76.5 °F 52.3 °F 30 in ESE 8.7 mph 18 mph 43% 0 in
19:59 76.3 °F 52.3 °F 30 in ESE 9.3 mph 17.3 mph 43.5% 0 in
20:04 75.9 °F 52.7 °F 30 in ESE 10 mph 17 mph 44.5% 0 in
20:09 75.7 °F 53.1 °F 30 in ESE 9.5 mph 16.3 mph 45.4% 0 in
20:14 75.4 °F 53.4 °F 30 in SE 8.7 mph 16 mph 46.4% 0 in
20:19 75.2 °F 53.8 °F 30 in ESE 8.3 mph 14 mph 47.4% 0 in
20:24 75 °F 54 °F 30 in ESE 7.6 mph 14 mph 48% 0 in
20:29 74.8 °F 54.1 °F 30 in ESE 7.5 mph 15 mph 48.3% 0 in
20:34 74.7 °F 54.3 °F 30 in ESE 7.4 mph 15 mph 49% 0 in
20:39 74.7 °F 54.1 °F 30 in SE 7 mph 10 mph 48.9% 0 in
20:44 74.5 °F 54.3 °F 30 in ESE 6.2 mph 12.7 mph 49.3% 0 in
20:49 74.1 °F 54.5 °F 30 in ESE 6.3 mph 13 mph 50.4% 0 in
20:54 73.9 °F 55.2 °F 30 in ESE 6.4 mph 11.5 mph 52% 0 in
20:59 73.4 °F 55.4 °F 30 in ESE 6.3 mph 12 mph 53.3% 0 in
21:04 73 °F 55.4 °F 30 in ESE 6.2 mph 12 mph 54% 0 in
21:09 72.9 °F 55.2 °F 30 in ESE 5.8 mph 8 mph 54% 0 in
21:14 72.7 °F 55 °F 30 in Este 5.2 mph 6.2 mph 54% 0 in
21:19 72.3 °F 54.9 °F 30 in Este 4.6 mph 6.9 mph 54% 0 in
21:24 72.3 °F 55 °F 30 in NNE 3.6 mph 7 mph 54.6% 0 in
21:29 72.1 °F 54.7 °F 30 in NNE 3.7 mph 7.4 mph 54.4% 0 in
21:34 71.8 °F 54.7 °F 30 in NE 4 mph 8.1 mph 55% 0 in
21:39 71.6 °F 54.5 °F 30 in NNE 4.3 mph 8.1 mph 55% 0 in
21:44 71.2 °F 54.5 °F 30 in NE 4.7 mph 9.2 mph 55.8% 0 in
21:49 70.5 °F 54.5 °F 30 in NE 5.3 mph 10.4 mph 56.6% 0 in
21:54 70 °F 54.5 °F 30 in NNE 6.2 mph 10 mph 58.1% 0 in
21:59 69.4 °F 54.7 °F 30 in NE 6.5 mph 10.4 mph 59.2% 0 in
22:04 69.3 °F 54.9 °F 30 in NE 6.9 mph 11.5 mph 60% 0 in
22:09 69.1 °F 54.9 °F 30 in NNE 6.7 mph 12 mph 60.5% 0 in
22:14 68.7 °F 54.5 °F 30 in NNE 6.4 mph 12.7 mph 60.6% 0 in
22:19 68.5 °F 54.3 °F 30 in NNE 6.4 mph 13 mph 60.8% 0 in
22:24 68.2 °F 54.9 °F 30 in NNE 6.4 mph 11.5 mph 62.2% 0 in
22:29 67.8 °F 54.9 °F 30 in NE 6.8 mph 12 mph 63.1% 0 in
22:34 67.6 °F 55.2 °F 30 in NNE 7.4 mph 12.7 mph 64.4% 0 in
22:39 67.5 °F 55.8 °F 30 in NNE 7.2 mph 13 mph 66.1% 0 in
22:44 67.3 °F 55.9 °F 30 in NE 6.9 mph 10.4 mph 67% 0 in
22:49 67.1 °F 56.3 °F 30 in NE 6.6 mph 13 mph 68.3% 0 in
22:54 66.7 °F 56.7 °F 30 in NE 6.2 mph 13 mph 69.7% 0 in
22:59 66.6 °F 56.8 °F 30 in NE 6.3 mph 11 mph 70.7% 0 in
23:04 66.6 °F 56.8 °F 30 in NE 6.4 mph 10 mph 71% 0 in
23:09 66.4 °F 56.7 °F 30 in NE 6.3 mph 11.8 mph 71% 0 in
23:14 66.4 °F 57 °F 30 in NE 6.2 mph 12 mph 72% 0 in
23:19 66.2 °F 57 °F 30 in NE 6.2 mph 10.4 mph 72.2% 0 in
23:24 66 °F 57.2 °F 30 in NE 6.2 mph 10 mph 73% 0 in
23:29 66 °F 57 °F 30 in NNE 5.9 mph 9.2 mph 73% 0 in
23:34 65.8 °F 57.2 °F 30 in NNE 5.4 mph 9 mph 73.7% 0 in
23:39 65.7 °F 57.2 °F 30 in NNE 5.4 mph 10.2 mph 74% 0 in
23:44 65.7 °F 57.4 °F 30 in NNE 5.4 mph 10.4 mph 74.7% 0 in
23:49 65.5 °F 57.4 °F 30 in NNE 5.6 mph 10 mph 75% 0 in
23:54 65.3 °F 57.4 °F 30 in NNE 5.9 mph 9.2 mph 75.7% 0 in
23:59 65.1 °F 57.4 °F 30 in NE 5.9 mph 9.2 mph 76% 0 in
Murcia-Puente Tocinos, España
Compliments of Weather Underground - 3.5 mb

La estación de MeteoMurcia.com, publica sus datos en los siguientes proyectos:

Weather Underground PWS IMURCIAP2 Meteoclimatic www.awekas.at

W3Counter
Web Analytics